sensor_id;sensor_type;location;lat;lon;timestamp;pressure;altitude;pressure_sealevel;temperature;humidity
36284;BME280;56085;48.910;9.478;2023-03-11T00:00:32;97010.28;;;1.73;67.80
36284;BME280;56085;48.910;9.478;2023-03-11T00:02:58;97012.53;;;1.71;67.97
36284;BME280;56085;48.910;9.478;2023-03-11T00:05:25;97007.72;;;1.68;68.27
36284;BME280;56085;48.910;9.478;2023-03-11T00:07:51;97013.53;;;1.66;68.12
36284;BME280;56085;48.910;9.478;2023-03-11T00:10:18;97036.13;;;1.67;67.75
36284;BME280;56085;48.910;9.478;2023-03-11T00:12:44;97028.16;;;1.62;68.19
36284;BME280;56085;48.910;9.478;2023-03-11T00:15:09;97023.38;;;1.59;67.86
36284;BME280;56085;48.910;9.478;2023-03-11T00:17:34;97033.47;;;1.58;68.08
36284;BME280;56085;48.910;9.478;2023-03-11T00:20:00;97020.53;;;1.55;67.65
36284;BME280;56085;48.910;9.478;2023-03-11T00:22:25;97050.00;;;1.53;67.54
36284;BME280;56085;48.910;9.478;2023-03-11T00:24:50;97058.53;;;1.51;67.82
36284;BME280;56085;48.910;9.478;2023-03-11T00:27:15;97057.72;;;1.51;67.16
36284;BME280;56085;48.910;9.478;2023-03-11T00:29:41;97040.56;;;1.50;66.93
36284;BME280;56085;48.910;9.478;2023-03-11T00:32:06;97066.25;;;1.49;66.93
36284;BME280;56085;48.910;9.478;2023-03-11T00:34:31;97046.22;;;1.45;67.35
36284;BME280;56085;48.910;9.478;2023-03-11T00:36:56;97053.94;;;1.43;66.96
36284;BME280;56085;48.910;9.478;2023-03-11T00:39:22;97051.53;;;1.42;66.50
36284;BME280;56085;48.910;9.478;2023-03-11T00:41:47;97053.81;;;1.39;66.74
36284;BME280;56085;48.910;9.478;2023-03-11T00:44:12;97036.19;;;1.37;66.85
36284;BME280;56085;48.910;9.478;2023-03-11T00:46:37;97058.63;;;1.34;67.22
36284;BME280;56085;48.910;9.478;2023-03-11T00:49:02;97051.59;;;1.33;67.14
36284;BME280;56085;48.910;9.478;2023-03-11T00:51:28;97060.91;;;1.32;67.74
36284;BME280;56085;48.910;9.478;2023-03-11T00:53:53;97084.94;;;1.30;67.69
36284;BME280;56085;48.910;9.478;2023-03-11T00:56:19;97076.31;;;1.28;67.52
36284;BME280;56085;48.910;9.478;2023-03-11T00:58:44;97075.38;;;1.24;67.99
36284;BME280;56085;48.910;9.478;2023-03-11T01:01:11;97069.81;;;1.20;67.76
36284;BME280;56085;48.910;9.478;2023-03-11T01:03:37;97080.53;;;1.16;68.51
36284;BME280;56085;48.910;9.478;2023-03-11T01:06:02;97081.19;;;1.13;68.43
36284;BME280;56085;48.910;9.478;2023-03-11T01:08:28;97095.94;;;1.12;68.46
36284;BME280;56085;48.910;9.478;2023-03-11T01:10:54;97099.31;;;1.09;68.76
36284;BME280;56085;48.910;9.478;2023-03-11T01:13:19;97093.41;;;1.07;68.98
36284;BME280;56085;48.910;9.478;2023-03-11T01:15:45;97081.69;;;1.07;69.24
36284;BME280;56085;48.910;9.478;2023-03-11T01:18:10;97093.75;;;1.06;70.14
36284;BME280;56085;48.910;9.478;2023-03-11T01:20:36;97086.34;;;1.06;69.89
36284;BME280;56085;48.910;9.478;2023-03-11T01:23:02;97093.44;;;0.98;69.91
36284;BME280;56085;48.910;9.478;2023-03-11T01:25:27;97103.25;;;0.91;68.70
36284;BME280;56085;48.910;9.478;2023-03-11T01:27:52;97100.38;;;0.87;69.03
36284;BME280;56085;48.910;9.478;2023-03-11T01:30:21;97086.63;;;0.83;68.09
36284;BME280;56085;48.910;9.478;2023-03-11T01:32:47;97097.03;;;0.81;68.13
36284;BME280;56085;48.910;9.478;2023-03-11T01:35:13;97121.06;;;0.79;68.20
36284;BME280;56085;48.910;9.478;2023-03-11T01:37:39;97115.47;;;0.76;68.00
36284;BME280;56085;48.910;9.478;2023-03-11T01:40:05;97104.78;;;0.71;67.04
36284;BME280;56085;48.910;9.478;2023-03-11T01:42:31;97098.06;;;0.68;66.13
36284;BME280;56085;48.910;9.478;2023-03-11T01:44:56;97129.59;;;0.69;65.55
36284;BME280;56085;48.910;9.478;2023-03-11T01:47:33;97130.69;;;0.68;65.81
36284;BME280;56085;48.910;9.478;2023-03-11T01:49:58;97128.31;;;0.66;65.54
36284;BME280;56085;48.910;9.478;2023-03-11T01:52:24;97143.03;;;0.65;64.99
36284;BME280;56085;48.910;9.478;2023-03-11T01:54:49;97125.75;;;0.61;64.77
36284;BME280;56085;48.910;9.478;2023-03-11T01:57:14;97135.69;;;0.57;64.77
36284;BME280;56085;48.910;9.478;2023-03-11T01:59:44;97122.75;;;0.54;64.54
36284;BME280;56085;48.910;9.478;2023-03-11T02:04:40;97131.84;;;0.49;63.28
36284;BME280;56085;48.910;9.478;2023-03-11T02:07:07;97123.22;;;0.47;63.31
36284;BME280;56085;48.910;9.478;2023-03-11T02:09:34;97139.56;;;0.47;63.44
36284;BME280;56085;48.910;9.478;2023-03-11T02:11:59;97144.53;;;0.45;62.72
36284;BME280;56085;48.910;9.478;2023-03-11T02:14:25;97145.47;;;0.41;63.05
36284;BME280;56085;48.910;9.478;2023-03-11T02:16:51;97147.41;;;0.40;63.03
36284;BME280;56085;48.910;9.478;2023-03-11T02:19:20;97147.25;;;0.37;62.01
36284;BME280;56085;48.910;9.478;2023-03-11T02:21:48;97156.53;;;0.36;61.86
36284;BME280;56085;48.910;9.478;2023-03-11T02:27:04;97157.50;;;0.31;62.20
36284;BME280;56085;48.910;9.478;2023-03-11T02:29:30;97156.22;;;0.28;61.81
36284;BME280;56085;48.910;9.478;2023-03-11T02:31:56;97161.00;;;0.23;61.79
36284;BME280;56085;48.910;9.478;2023-03-11T02:36:48;97146.97;;;0.12;62.44
36284;BME280;56085;48.910;9.478;2023-03-11T02:39:13;97157.34;;;0.01;62.15
36284;BME280;56085;48.910;9.478;2023-03-11T02:41:39;97148.41;;;-0.08;62.97
36284;BME280;56085;48.910;9.478;2023-03-11T02:44:06;97146.47;;;-0.16;63.04
36284;BME280;56085;48.910;9.478;2023-03-11T02:46:32;97142.63;;;-0.24;62.65
36284;BME280;56085;48.910;9.478;2023-03-11T02:48:58;97145.03;;;-0.31;62.81
36284;BME280;56085;48.910;9.478;2023-03-11T02:51:23;97141.66;;;-0.37;63.31
36284;BME280;56085;48.910;9.478;2023-03-11T02:53:50;97147.72;;;-0.40;63.49
36284;BME280;56085;48.910;9.478;2023-03-11T02:56:17;97153.47;;;-0.42;63.44
36284;BME280;56085;48.910;9.478;2023-03-11T02:58:42;97159.06;;;-0.47;63.30
36284;BME280;56085;48.910;9.478;2023-03-11T03:01:07;97157.78;;;-0.49;63.86
36284;BME280;56085;48.910;9.478;2023-03-11T03:03:32;97154.88;;;-0.53;64.29
36284;BME280;56085;48.910;9.478;2023-03-11T03:05:58;97176.16;;;-0.55;64.18
36284;BME280;56085;48.910;9.478;2023-03-11T03:08:23;97171.34;;;-0.58;65.05
36284;BME280;56085;48.910;9.478;2023-03-11T03:10:48;97169.75;;;-0.59;65.29
36284;BME280;56085;48.910;9.478;2023-03-11T03:13:13;97170.38;;;-0.62;65.77
36284;BME280;56085;48.910;9.478;2023-03-11T03:15:38;97172.44;;;-0.68;66.10
36284;BME280;56085;48.910;9.478;2023-03-11T03:18:03;97183.41;;;-0.73;66.87
36284;BME280;56085;48.910;9.478;2023-03-11T03:20:29;97182.63;;;-0.74;66.11
36284;BME280;56085;48.910;9.478;2023-03-11T03:22:54;97177.03;;;-0.77;66.56
36284;BME280;56085;48.910;9.478;2023-03-11T03:25:19;97190.94;;;-0.79;67.14
36284;BME280;56085;48.910;9.478;2023-03-11T03:27:46;97196.34;;;-0.79;67.55
36284;BME280;56085;48.910;9.478;2023-03-11T03:30:11;97204.31;;;-0.82;67.19
36284;BME280;56085;48.910;9.478;2023-03-11T03:32:36;97201.28;;;-0.81;67.63
36284;BME280;56085;48.910;9.478;2023-03-11T03:35:02;97207.22;;;-0.79;68.43
36284;BME280;56085;48.910;9.478;2023-03-11T03:37:30;97209.78;;;-0.74;68.68
36284;BME280;56085;48.910;9.478;2023-03-11T03:39:56;97220.97;;;-0.66;68.83
36284;BME280;56085;48.910;9.478;2023-03-11T03:42:21;97215.72;;;-0.63;69.67
36284;BME280;56085;48.910;9.478;2023-03-11T03:44:49;97199.91;;;-0.61;69.96
36284;BME280;56085;48.910;9.478;2023-03-11T03:47:14;97209.34;;;-0.58;70.18
36284;BME280;56085;48.910;9.478;2023-03-11T03:49:39;97208.72;;;-0.55;70.91
36284;BME280;56085;48.910;9.478;2023-03-11T03:52:05;97210.00;;;-0.52;70.62
36284;BME280;56085;48.910;9.478;2023-03-11T03:54:30;97202.66;;;-0.52;71.29
36284;BME280;56085;48.910;9.478;2023-03-11T03:56:56;97217.84;;;-0.51;71.30
36284;BME280;56085;48.910;9.478;2023-03-11T03:59:22;97219.28;;;-0.54;71.23
36284;BME280;56085;48.910;9.478;2023-03-11T04:01:47;97225.50;;;-0.53;71.78
36284;BME280;56085;48.910;9.478;2023-03-11T04:04:12;97222.31;;;-0.55;71.82
36284;BME280;56085;48.910;9.478;2023-03-11T04:06:37;97230.25;;;-0.59;71.08
36284;BME280;56085;48.910;9.478;2023-03-11T04:09:02;97236.16;;;-0.65;71.73
36284;BME280;56085;48.910;9.478;2023-03-11T04:11:28;97226.25;;;-0.70;71.05
36284;BME280;56085;48.910;9.478;2023-03-11T04:13:53;97236.44;;;-0.76;71.65
36284;BME280;56085;48.910;9.478;2023-03-11T04:16:19;97227.94;;;-0.83;71.20
36284;BME280;56085;48.910;9.478;2023-03-11T04:18:45;97234.00;;;-0.86;71.58
36284;BME280;56085;48.910;9.478;2023-03-11T04:21:10;97250.09;;;-0.90;71.10
36284;BME280;56085;48.910;9.478;2023-03-11T04:23:36;97262.06;;;-0.91;71.01
36284;BME280;56085;48.910;9.478;2023-03-11T04:26:01;97258.22;;;-0.90;70.77
36284;BME280;56085;48.910;9.478;2023-03-11T04:28:26;97245.47;;;-0.89;70.51
36284;BME280;56085;48.910;9.478;2023-03-11T04:30:52;97249.31;;;-0.90;70.98
36284;BME280;56085;48.910;9.478;2023-03-11T04:33:17;97242.25;;;-0.91;71.08
36284;BME280;56085;48.910;9.478;2023-03-11T04:35:42;97256.63;;;-0.91;70.91
36284;BME280;56085;48.910;9.478;2023-03-11T04:38:07;97246.28;;;-0.89;71.01
36284;BME280;56085;48.910;9.478;2023-03-11T04:40:32;97249.00;;;-0.89;70.76
36284;BME280;56085;48.910;9.478;2023-03-11T04:42:58;97259.06;;;-0.89;70.44
36284;BME280;56085;48.910;9.478;2023-03-11T04:45:23;97245.47;;;-0.89;70.84
36284;BME280;56085;48.910;9.478;2023-03-11T04:47:49;97246.59;;;-0.90;70.46
36284;BME280;56085;48.910;9.478;2023-03-11T04:50:14;97241.16;;;-0.90;70.36
36284;BME280;56085;48.910;9.478;2023-03-11T04:52:40;97234.44;;;-0.93;70.46
36284;BME280;56085;48.910;9.478;2023-03-11T04:55:05;97236.97;;;-0.96;69.73
36284;BME280;56085;48.910;9.478;2023-03-11T04:57:31;97242.22;;;-1.00;69.49
36284;BME280;56085;48.910;9.478;2023-03-11T04:59:56;97240.91;;;-1.02;70.00
36284;BME280;56085;48.910;9.478;2023-03-11T05:02:21;97246.66;;;-1.04;69.55
36284;BME280;56085;48.910;9.478;2023-03-11T05:04:46;97245.56;;;-1.03;69.70
36284;BME280;56085;48.910;9.478;2023-03-11T05:07:11;97246.97;;;-1.06;69.59
36284;BME280;56085;48.910;9.478;2023-03-11T05:09:37;97256.03;;;-1.10;70.71
36284;BME280;56085;48.910;9.478;2023-03-11T05:12:02;97251.25;;;-1.13;70.74
36284;BME280;56085;48.910;9.478;2023-03-11T05:14:28;97256.97;;;-1.15;70.79
36284;BME280;56085;48.910;9.478;2023-03-11T05:16:53;97254.59;;;-1.16;71.21
36284;BME280;56085;48.910;9.478;2023-03-11T05:19:18;97251.97;;;-1.21;71.16
36284;BME280;56085;48.910;9.478;2023-03-11T05:21:56;97271.41;;;-1.28;71.95
36284;BME280;56085;48.910;9.478;2023-03-11T05:24:21;97266.41;;;-1.35;71.99
36284;BME280;56085;48.910;9.478;2023-03-11T05:26:46;97271.16;;;-1.41;72.22
36284;BME280;56085;48.910;9.478;2023-03-11T05:29:11;97281.31;;;-1.46;72.73
36284;BME280;56085;48.910;9.478;2023-03-11T05:31:37;97277.34;;;-1.49;72.02
36284;BME280;56085;48.910;9.478;2023-03-11T05:34:02;97272.31;;;-1.55;72.54
36284;BME280;56085;48.910;9.478;2023-03-11T05:36:28;97279.66;;;-1.56;73.41
36284;BME280;56085;48.910;9.478;2023-03-11T05:38:53;97274.56;;;-1.58;73.02
36284;BME280;56085;48.910;9.478;2023-03-11T05:41:18;97283.78;;;-1.59;73.30
36284;BME280;56085;48.910;9.478;2023-03-11T05:43:43;97281.69;;;-1.62;74.01
36284;BME280;56085;48.910;9.478;2023-03-11T05:46:09;97281.19;;;-1.64;73.72
36284;BME280;56085;48.910;9.478;2023-03-11T05:48:34;97282.31;;;-1.65;74.18
36284;BME280;56085;48.910;9.478;2023-03-11T05:51:00;97282.31;;;-1.65;74.58
36284;BME280;56085;48.910;9.478;2023-03-11T05:53:25;97284.19;;;-1.65;74.51
36284;BME280;56085;48.910;9.478;2023-03-11T05:55:57;97299.38;;;-1.64;74.45
36284;BME280;56085;48.910;9.478;2023-03-11T05:58:22;97299.25;;;-1.59;74.95
36284;BME280;56085;48.910;9.478;2023-03-11T06:00:48;97299.91;;;-1.53;75.03
36284;BME280;56085;48.910;9.478;2023-03-11T06:03:13;97300.81;;;-1.44;74.66
36284;BME280;56085;48.910;9.478;2023-03-11T06:05:43;97297.16;;;-1.39;75.00
36284;BME280;56085;48.910;9.478;2023-03-11T06:08:08;97309.19;;;-1.32;75.09
36284;BME280;56085;48.910;9.478;2023-03-11T06:10:33;97310.50;;;-1.29;74.54
36284;BME280;56085;48.910;9.478;2023-03-11T06:12:58;97304.44;;;-1.26;75.04
36284;BME280;56085;48.910;9.478;2023-03-11T06:15:23;97311.19;;;-1.24;75.21
36284;BME280;56085;48.910;9.478;2023-03-11T06:17:49;97313.56;;;-1.22;74.69
36284;BME280;56085;48.910;9.478;2023-03-11T06:20:14;97310.25;;;-1.19;74.87
36284;BME280;56085;48.910;9.478;2023-03-11T06:22:39;97312.53;;;-1.12;74.71
36284;BME280;56085;48.910;9.478;2023-03-11T06:25:04;97322.56;;;-1.13;75.22
36284;BME280;56085;48.910;9.478;2023-03-11T06:27:29;97323.25;;;-1.07;74.98
36284;BME280;56085;48.910;9.478;2023-03-11T06:29:55;97323.63;;;-1.00;75.38
36284;BME280;56085;48.910;9.478;2023-03-11T06:32:20;97331.03;;;-0.92;74.64
36284;BME280;56085;48.910;9.478;2023-03-11T06:34:48;97329.16;;;-0.82;74.66
36284;BME280;56085;48.910;9.478;2023-03-11T06:37:13;97325.50;;;-0.78;74.24
36284;BME280;56085;48.910;9.478;2023-03-11T06:39:39;97328.41;;;-0.74;74.96
36284;BME280;56085;48.910;9.478;2023-03-11T06:42:04;97334.84;;;-0.70;74.85
36284;BME280;56085;48.910;9.478;2023-03-11T06:44:33;97339.50;;;-0.62;74.61
36284;BME280;56085;48.910;9.478;2023-03-11T06:46:58;97341.25;;;-0.57;74.66
36284;BME280;56085;48.910;9.478;2023-03-11T06:49:23;97350.41;;;-0.53;74.36
36284;BME280;56085;48.910;9.478;2023-03-11T06:51:48;97356.94;;;-0.54;74.44
36284;BME280;56085;48.910;9.478;2023-03-11T06:54:14;97359.22;;;-0.47;74.32
36284;BME280;56085;48.910;9.478;2023-03-11T06:56:39;97359.84;;;-0.50;73.50
36284;BME280;56085;48.910;9.478;2023-03-11T06:59:04;97365.47;;;-0.38;73.37
36284;BME280;56085;48.910;9.478;2023-03-11T07:01:29;97358.47;;;-0.39;73.23
36284;BME280;56085;48.910;9.478;2023-03-11T07:03:54;97369.66;;;-0.41;73.34
36284;BME280;56085;48.910;9.478;2023-03-11T07:06:21;97369.13;;;-0.43;73.33
36284;BME280;56085;48.910;9.478;2023-03-11T07:08:47;97384.31;;;-0.42;72.73
36284;BME280;56085;48.910;9.478;2023-03-11T07:11:13;97383.06;;;-0.36;72.09
36284;BME280;56085;48.910;9.478;2023-03-11T07:13:38;97384.84;;;-0.31;72.03
36284;BME280;56085;48.910;9.478;2023-03-11T07:16:05;97389.84;;;-0.24;72.25
36284;BME280;56085;48.910;9.478;2023-03-11T07:18:31;97383.16;;;-0.18;71.75
36284;BME280;56085;48.910;9.478;2023-03-11T07:20:57;97388.78;;;-0.14;70.98
36284;BME280;56085;48.910;9.478;2023-03-11T07:23:22;97393.09;;;-0.13;71.48
36284;BME280;56085;48.910;9.478;2023-03-11T07:25:47;97389.72;;;-0.10;71.22
36284;BME280;56085;48.910;9.478;2023-03-11T07:28:13;97392.97;;;-0.08;70.76
36284;BME280;56085;48.910;9.478;2023-03-11T07:30:38;97401.09;;;-0.08;70.26
36284;BME280;56085;48.910;9.478;2023-03-11T07:33:03;97402.53;;;-0.11;70.29
36284;BME280;56085;48.910;9.478;2023-03-11T07:35:29;97416.13;;;-0.11;69.56
36284;BME280;56085;48.910;9.478;2023-03-11T07:37:54;97401.09;;;-0.08;69.85
36284;BME280;56085;48.910;9.478;2023-03-11T07:40:19;97414.72;;;0.01;70.14
36284;BME280;56085;48.910;9.478;2023-03-11T07:42:44;97413.63;;;0.02;70.52
36284;BME280;56085;48.910;9.478;2023-03-11T07:45:10;97410.91;;;0.02;70.09
36284;BME280;56085;48.910;9.478;2023-03-11T07:47:35;97423.56;;;0.06;70.59
36284;BME280;56085;48.910;9.478;2023-03-11T07:50:00;97424.81;;;0.09;69.70
36284;BME280;56085;48.910;9.478;2023-03-11T07:52:28;97432.97;;;0.09;70.27
36284;BME280;56085;48.910;9.478;2023-03-11T07:54:53;97438.28;;;0.14;70.14
36284;BME280;56085;48.910;9.478;2023-03-11T07:57:18;97434.16;;;0.16;69.49
36284;BME280;56085;48.910;9.478;2023-03-11T07:59:43;97432.72;;;0.19;69.18
36284;BME280;56085;48.910;9.478;2023-03-11T08:02:09;97432.56;;;0.24;69.01
36284;BME280;56085;48.910;9.478;2023-03-11T08:04:34;97434.66;;;0.27;68.68
36284;BME280;56085;48.910;9.478;2023-03-11T08:06:59;97444.44;;;0.37;69.33
36284;BME280;56085;48.910;9.478;2023-03-11T08:09:25;97445.47;;;0.50;68.77
36284;BME280;56085;48.910;9.478;2023-03-11T08:11:50;97448.19;;;0.50;68.39
36284;BME280;56085;48.910;9.478;2023-03-11T08:14:15;97456.38;;;0.67;68.41
36284;BME280;56085;48.910;9.478;2023-03-11T08:16:40;97455.28;;;0.86;68.82
36284;BME280;56085;48.910;9.478;2023-03-11T08:19:05;97461.53;;;0.86;67.80
36284;BME280;56085;48.910;9.478;2023-03-11T08:21:31;97459.47;;;1.01;67.91
36284;BME280;56085;48.910;9.478;2023-03-11T08:23:57;97459.81;;;1.26;67.26
36284;BME280;56085;48.910;9.478;2023-03-11T08:26:22;97463.47;;;1.38;67.62
36284;BME280;56085;48.910;9.478;2023-03-11T08:28:48;97467.66;;;1.53;67.17
36284;BME280;56085;48.910;9.478;2023-03-11T08:31:14;97471.00;;;1.42;66.87
36284;BME280;56085;48.910;9.478;2023-03-11T08:33:40;97471.97;;;1.46;66.29
36284;BME280;56085;48.910;9.478;2023-03-11T08:36:06;97472.47;;;1.30;66.32
36284;BME280;56085;48.910;9.478;2023-03-11T08:38:31;97474.88;;;1.23;65.99
36284;BME280;56085;48.910;9.478;2023-03-11T08:40:56;97481.28;;;1.18;65.26
36284;BME280;56085;48.910;9.478;2023-03-11T08:43:21;97477.91;;;1.21;65.06
36284;BME280;56085;48.910;9.478;2023-03-11T08:45:46;97488.16;;;1.16;65.26
36284;BME280;56085;48.910;9.478;2023-03-11T08:48:12;97487.34;;;1.15;65.05
36284;BME280;56085;48.910;9.478;2023-03-11T08:50:40;97485.44;;;1.25;64.73
36284;BME280;56085;48.910;9.478;2023-03-11T08:53:06;97490.69;;;1.65;64.76
36284;BME280;56085;48.910;9.478;2023-03-11T08:55:32;97488.56;;;1.97;64.49
36284;BME280;56085;48.910;9.478;2023-03-11T08:57:57;97482.28;;;2.14;64.50
36284;BME280;56085;48.910;9.478;2023-03-11T09:00:23;97493.97;;;2.23;63.84
36284;BME280;56085;48.910;9.478;2023-03-11T09:02:48;97494.94;;;2.18;63.94
36284;BME280;56085;48.910;9.478;2023-03-11T09:05:13;97492.69;;;2.20;63.64
36284;BME280;56085;48.910;9.478;2023-03-11T09:07:38;97496.94;;;2.39;62.43
36284;BME280;56085;48.910;9.478;2023-03-11T09:10:05;97495.38;;;2.68;62.98
36284;BME280;56085;48.910;9.478;2023-03-11T09:12:30;97488.44;;;2.79;62.58
36284;BME280;56085;48.910;9.478;2023-03-11T09:14:55;97478.88;;;2.94;62.01
36284;BME280;56085;48.910;9.478;2023-03-11T09:17:20;97486.72;;;2.95;61.94
36284;BME280;56085;48.910;9.478;2023-03-11T09:19:46;97495.44;;;2.89;61.25
36284;BME280;56085;48.910;9.478;2023-03-11T09:22:11;97485.44;;;2.93;61.42
36284;BME280;56085;48.910;9.478;2023-03-11T09:24:36;97498.66;;;2.52;60.91
36284;BME280;56085;48.910;9.478;2023-03-11T09:27:01;97499.97;;;2.46;60.63
36284;BME280;56085;48.910;9.478;2023-03-11T09:29:27;97496.31;;;2.33;60.21
36284;BME280;56085;48.910;9.478;2023-03-11T09:31:52;97498.06;;;2.38;60.03
36284;BME280;56085;48.910;9.478;2023-03-11T09:34:17;97509.94;;;2.42;59.91
36284;BME280;56085;48.910;9.478;2023-03-11T09:36:43;97509.81;;;2.68;60.04
36284;BME280;56085;48.910;9.478;2023-03-11T09:39:08;97498.22;;;3.10;59.81
36284;BME280;56085;48.910;9.478;2023-03-11T09:41:41;97510.13;;;3.47;59.47
36284;BME280;56085;48.910;9.478;2023-03-11T09:44:11;97508.69;;;3.71;58.97
36284;BME280;56085;48.910;9.478;2023-03-11T09:54:52;97511.88;;;3.73;56.97
36284;BME280;56085;48.910;9.478;2023-03-11T09:57:29;97511.44;;;3.83;56.62
36284;BME280;56085;48.910;9.478;2023-03-11T09:59:56;97509.06;;;3.82;56.31
36284;BME280;56085;48.910;9.478;2023-03-11T10:02:22;97520.84;;;3.95;56.04
36284;BME280;56085;48.910;9.478;2023-03-11T10:04:53;97500.09;;;3.94;55.71
36284;BME280;56085;48.910;9.478;2023-03-11T10:07:22;97499.38;;;4.18;55.68
36284;BME280;56085;48.910;9.478;2023-03-11T10:09:53;97508.50;;;4.22;55.60
36284;BME280;56085;48.910;9.478;2023-03-11T10:12:39;97502.59;;;4.32;55.45
36284;BME280;56085;48.910;9.478;2023-03-11T10:20:25;97501.38;;;4.09;54.73
36284;BME280;56085;48.910;9.478;2023-03-11T10:28:11;97503.66;;;4.07;54.52
36284;BME280;56085;48.910;9.478;2023-03-11T10:30:39;97506.22;;;4.24;54.23
36284;BME280;56085;48.910;9.478;2023-03-11T10:33:08;97501.78;;;4.19;54.30
36284;BME280;56085;48.910;9.478;2023-03-11T10:35:39;97498.31;;;4.10;53.80
36284;BME280;56085;48.910;9.478;2023-03-11T10:38:13;97505.97;;;4.17;53.46
36284;BME280;56085;48.910;9.478;2023-03-11T10:40:43;97502.56;;;4.20;53.30
36284;BME280;56085;48.910;9.478;2023-03-11T10:43:20;97499.56;;;4.00;53.08
36284;BME280;56085;48.910;9.478;2023-03-11T10:45:49;97494.63;;;4.52;52.83
36284;BME280;56085;48.910;9.478;2023-03-11T10:48:15;97500.91;;;4.65;52.51
36284;BME280;56085;48.910;9.478;2023-03-11T10:53:11;97496.69;;;4.55;51.77
36284;BME280;56085;48.910;9.478;2023-03-11T10:55:46;97506.25;;;4.49;51.54
36284;BME280;56085;48.910;9.478;2023-03-11T10:58:13;97501.16;;;4.72;51.38
36284;BME280;56085;48.910;9.478;2023-03-11T11:00:39;97498.41;;;4.97;51.31
36284;BME280;56085;48.910;9.478;2023-03-11T11:03:04;97494.59;;;5.14;51.18
36284;BME280;56085;48.910;9.478;2023-03-11T11:05:36;97494.97;;;5.65;50.98
36284;BME280;56085;48.910;9.478;2023-03-11T11:10:27;97509.97;;;6.72;50.54
36284;BME280;56085;48.910;9.478;2023-03-11T11:12:56;97511.97;;;6.43;49.23
36284;BME280;56085;48.910;9.478;2023-03-11T11:15:36;97505.78;;;6.62;48.59
36284;BME280;56085;48.910;9.478;2023-03-11T11:18:04;97514.13;;;6.82;48.11
36284;BME280;56085;48.910;9.478;2023-03-11T11:20:31;97514.50;;;6.64;48.13
36284;BME280;56085;48.910;9.478;2023-03-11T11:22:58;97518.19;;;6.56;48.18
36284;BME280;56085;48.910;9.478;2023-03-11T11:28:02;97518.81;;;6.50;47.86
36284;BME280;56085;48.910;9.478;2023-03-11T11:30:29;97523.66;;;6.24;48.03
36284;BME280;56085;48.910;9.478;2023-03-11T11:32:54;97523.66;;;6.24;47.87
36284;BME280;56085;48.910;9.478;2023-03-11T11:35:21;97516.19;;;6.09;47.65
36284;BME280;56085;48.910;9.478;2023-03-11T11:37:48;97508.66;;;5.93;47.35
36284;BME280;56085;48.910;9.478;2023-03-11T11:42:49;97505.78;;;6.94;46.77
36284;BME280;56085;48.910;9.478;2023-03-11T11:45:27;97510.31;;;7.38;47.05
36284;BME280;56085;48.910;9.478;2023-03-11T11:47:53;97508.22;;;7.51;46.42
36284;BME280;56085;48.910;9.478;2023-03-11T11:50:30;97517.69;;;7.18;45.76
36284;BME280;56085;48.910;9.478;2023-03-11T11:55:43;97509.75;;;7.68;45.13
36284;BME280;56085;48.910;9.478;2023-03-11T11:58:11;97510.25;;;7.34;45.18
36284;BME280;56085;48.910;9.478;2023-03-11T12:00:41;97499.53;;;7.49;44.34
36284;BME280;56085;48.910;9.478;2023-03-11T12:05:34;97498.69;;;7.45;44.25
36284;BME280;56085;48.910;9.478;2023-03-11T12:10:32;97485.56;;;7.58;44.26
36284;BME280;56085;48.910;9.478;2023-03-11T12:13:06;97480.41;;;7.56;43.29
36284;BME280;56085;48.910;9.478;2023-03-11T12:15:37;97483.34;;;7.83;44.10
36284;BME280;56085;48.910;9.478;2023-03-11T12:18:05;97474.41;;;8.52;43.72
36284;BME280;56085;48.910;9.478;2023-03-11T12:20:39;97483.03;;;8.50;43.04
36284;BME280;56085;48.910;9.478;2023-03-11T12:23:13;97480.00;;;8.36;42.42
36284;BME280;56085;48.910;9.478;2023-03-11T12:25:46;97474.72;;;8.27;42.39
36284;BME280;56085;48.910;9.478;2023-03-11T12:31:00;97464.19;;;8.10;42.56
36284;BME280;56085;48.910;9.478;2023-03-11T12:33:31;97468.81;;;8.25;42.24
36284;BME280;56085;48.910;9.478;2023-03-11T12:35:58;97464.66;;;8.58;42.18
36284;BME280;56085;48.910;9.478;2023-03-11T12:38:26;97466.06;;;8.48;42.38
36284;BME280;56085;48.910;9.478;2023-03-11T12:41:03;97464.34;;;7.97;41.75
36284;BME280;56085;48.910;9.478;2023-03-11T12:46:01;97468.69;;;7.20;41.31
36284;BME280;56085;48.910;9.478;2023-03-11T12:50:51;97474.28;;;8.45;41.33
36284;BME280;56085;48.910;9.478;2023-03-11T12:53:17;97460.97;;;9.57;41.02
36284;BME280;56085;48.910;9.478;2023-03-11T12:55:54;97484.19;;;10.58;40.63
36284;BME280;56085;48.910;9.478;2023-03-11T12:58:37;97494.84;;;15.39;39.89
36284;BME280;56085;48.910;9.478;2023-03-11T13:01:16;97475.25;;;21.70;39.71
36284;BME280;56085;48.910;9.478;2023-03-11T13:03:50;97468.09;;;25.13;38.67
36284;BME280;56085;48.910;9.478;2023-03-11T13:08:49;97444.94;;;19.26;35.92
36284;BME280;56085;48.910;9.478;2023-03-11T13:11:27;97450.22;;;16.12;35.49
36284;BME280;56085;48.910;9.478;2023-03-11T13:13:52;97423.72;;;20.13;35.42
36284;BME280;56085;48.910;9.478;2023-03-11T13:16:35;97459.38;;;15.78;34.65
36284;BME280;56085;48.910;9.478;2023-03-11T13:19:27;97526.66;;;18.14;34.73
36284;BME280;56085;48.910;9.478;2023-03-11T13:21:46;97487.44;;;25.63;34.52
36284;BME280;56085;48.910;9.478;2023-03-11T13:26:44;97483.19;;;31.10;33.50
36284;BME280;56085;48.910;9.478;2023-03-11T13:29:17;97486.53;;;32.01;32.39
36284;BME280;56085;48.910;9.478;2023-03-11T13:31:54;97494.16;;;33.31;31.05
36284;BME280;56085;48.910;9.478;2023-03-11T13:39:18;97480.34;;;35.01;28.55
36284;BME280;56085;48.910;9.478;2023-03-11T13:41:46;97436.47;;;34.55;27.68
36284;BME280;56085;48.910;9.478;2023-03-11T13:46:52;97449.22;;;35.05;25.92
36284;BME280;56085;48.910;9.478;2023-03-11T13:49:23;97478.28;;;36.43;25.24
36284;BME280;56085;48.910;9.478;2023-03-11T13:51:50;97483.50;;;35.70;24.46
36284;BME280;56085;48.910;9.478;2023-03-11T13:56:45;97453.78;;;35.81;23.09
36284;BME280;56085;48.910;9.478;2023-03-11T13:59:32;97435.56;;;37.47;22.97
36284;BME280;56085;48.910;9.478;2023-03-11T14:01:59;97418.44;;;26.65;22.31
36284;BME280;56085;48.910;9.478;2023-03-11T14:04:26;97468.06;;;31.38;22.31
36284;BME280;56085;48.910;9.478;2023-03-11T14:06:52;97456.78;;;32.57;22.20
36284;BME280;56085;48.910;9.478;2023-03-11T14:09:18;97451.63;;;32.86;21.78